sensor_id;sensor_type;location;lat;lon;timestamp;temperature;humidity
17092;DHT22;8661;45.700;4.880;2023-12-14T00:02:06;9.10;99.90
17092;DHT22;8661;45.700;4.880;2023-12-14T00:04:33;9.00;99.90
17092;DHT22;8661;45.700;4.880;2023-12-14T00:07:00;9.00;99.90
17092;DHT22;8661;45.700;4.880;2023-12-14T00:09:27;9.00;99.90
17092;DHT22;8661;45.700;4.880;2023-12-14T00:11:54;9.00;99.90
17092;DHT22;8661;45.700;4.880;2023-12-14T00:14:20;8.90;99.90
17092;DHT22;8661;45.700;4.880;2023-12-14T00:16:47;8.90;99.90
17092;DHT22;8661;45.700;4.880;2023-12-14T00:19:16;8.90;99.90
17092;DHT22;8661;45.700;4.880;2023-12-14T00:21:43;8.80;99.90
17092;DHT22;8661;45.700;4.880;2023-12-14T00:24:10;8.80;99.90
17092;DHT22;8661;45.700;4.880;2023-12-14T00:26:37;8.80;99.90
17092;DHT22;8661;45.700;4.880;2023-12-14T00:29:04;8.90;99.90
17092;DHT22;8661;45.700;4.880;2023-12-14T00:31:31;8.80;99.90
17092;DHT22;8661;45.700;4.880;2023-12-14T00:33:58;8.90;99.90
17092;DHT22;8661;45.700;4.880;2023-12-14T00:36:26;8.80;99.90
17092;DHT22;8661;45.700;4.880;2023-12-14T00:38:54;8.80;99.90
17092;DHT22;8661;45.700;4.880;2023-12-14T00:41:22;8.70;99.90
17092;DHT22;8661;45.700;4.880;2023-12-14T00:43:49;8.80;99.90
17092;DHT22;8661;45.700;4.880;2023-12-14T00:46:16;8.80;99.90
17092;DHT22;8661;45.700;4.880;2023-12-14T00:48:43;8.80;99.90
17092;DHT22;8661;45.700;4.880;2023-12-14T00:51:10;8.70;99.90
17092;DHT22;8661;45.700;4.880;2023-12-14T00:53:38;8.70;99.90
17092;DHT22;8661;45.700;4.880;2023-12-14T00:56:08;8.70;99.90
17092;DHT22;8661;45.700;4.880;2023-12-14T00:58:35;8.70;99.90
17092;DHT22;8661;45.700;4.880;2023-12-14T01:01:02;8.70;99.90
17092;DHT22;8661;45.700;4.880;2023-12-14T01:03:29;8.70;99.90
17092;DHT22;8661;45.700;4.880;2023-12-14T01:05:56;8.70;99.90
17092;DHT22;8661;45.700;4.880;2023-12-14T01:08:23;8.70;99.90
17092;DHT22;8661;45.700;4.880;2023-12-14T01:10:51;8.70;99.90
17092;DHT22;8661;45.700;4.880;2023-12-14T01:13:18;8.70;99.90
17092;DHT22;8661;45.700;4.880;2023-12-14T01:15:45;8.70;99.90
17092;DHT22;8661;45.700;4.880;2023-12-14T01:18:14;8.70;99.90
17092;DHT22;8661;45.700;4.880;2023-12-14T01:20:41;8.70;99.90
17092;DHT22;8661;45.700;4.880;2023-12-14T01:23:08;8.70;99.90
17092;DHT22;8661;45.700;4.880;2023-12-14T01:25:35;8.80;99.90
17092;DHT22;8661;45.700;4.880;2023-12-14T01:28:04;8.80;99.90
17092;DHT22;8661;45.700;4.880;2023-12-14T01:30:31;8.80;99.90
17092;DHT22;8661;45.700;4.880;2023-12-14T01:32:58;8.80;99.90
17092;DHT22;8661;45.700;4.880;2023-12-14T01:35:25;8.80;99.90
17092;DHT22;8661;45.700;4.880;2023-12-14T01:37:52;8.80;99.90
17092;DHT22;8661;45.700;4.880;2023-12-14T01:40:19;8.80;99.90
17092;DHT22;8661;45.700;4.880;2023-12-14T01:42:46;8.90;99.90
17092;DHT22;8661;45.700;4.880;2023-12-14T01:45:15;8.90;99.90
17092;DHT22;8661;45.700;4.880;2023-12-14T01:47:42;8.90;99.90
17092;DHT22;8661;45.700;4.880;2023-12-14T01:50:10;8.80;99.90
17092;DHT22;8661;45.700;4.880;2023-12-14T01:52:37;8.90;99.90
17092;DHT22;8661;45.700;4.880;2023-12-14T01:55:05;8.90;99.90
17092;DHT22;8661;45.700;4.880;2023-12-14T01:57:32;8.80;99.90
17092;DHT22;8661;45.700;4.880;2023-12-14T01:59:59;8.80;99.90
17092;DHT22;8661;45.700;4.880;2023-12-14T02:02:27;8.80;99.90
17092;DHT22;8661;45.700;4.880;2023-12-14T02:04:54;8.80;99.90
17092;DHT22;8661;45.700;4.880;2023-12-14T02:07:21;8.80;99.90
17092;DHT22;8661;45.700;4.880;2023-12-14T02:09:48;8.80;99.90
17092;DHT22;8661;45.700;4.880;2023-12-14T02:12:16;8.80;99.90
17092;DHT22;8661;45.700;4.880;2023-12-14T02:14:43;8.80;99.90
17092;DHT22;8661;45.700;4.880;2023-12-14T02:17:10;8.70;99.90
17092;DHT22;8661;45.700;4.880;2023-12-14T02:19:38;8.80;99.90
17092;DHT22;8661;45.700;4.880;2023-12-14T02:22:05;8.80;99.90
17092;DHT22;8661;45.700;4.880;2023-12-14T02:24:33;8.70;99.90
17092;DHT22;8661;45.700;4.880;2023-12-14T02:27:00;8.70;99.90
17092;DHT22;8661;45.700;4.880;2023-12-14T02:29:28;8.70;99.90
17092;DHT22;8661;45.700;4.880;2023-12-14T02:31:55;8.70;99.90
17092;DHT22;8661;45.700;4.880;2023-12-14T02:34:22;8.70;99.90
17092;DHT22;8661;45.700;4.880;2023-12-14T02:36:50;8.60;99.90
17092;DHT22;8661;45.700;4.880;2023-12-14T02:39:17;8.60;99.90
17092;DHT22;8661;45.700;4.880;2023-12-14T02:41:45;8.60;99.90
17092;DHT22;8661;45.700;4.880;2023-12-14T02:44:12;8.60;99.90
17092;DHT22;8661;45.700;4.880;2023-12-14T02:46:39;8.60;99.90
17092;DHT22;8661;45.700;4.880;2023-12-14T02:49:06;8.60;99.90
17092;DHT22;8661;45.700;4.880;2023-12-14T02:51:33;8.60;99.90
17092;DHT22;8661;45.700;4.880;2023-12-14T02:54:02;8.60;99.90
17092;DHT22;8661;45.700;4.880;2023-12-14T02:56:29;8.70;99.90
17092;DHT22;8661;45.700;4.880;2023-12-14T02:58:57;8.60;99.90
17092;DHT22;8661;45.700;4.880;2023-12-14T03:01:24;8.60;99.90
17092;DHT22;8661;45.700;4.880;2023-12-14T03:03:51;8.60;99.90
17092;DHT22;8661;45.700;4.880;2023-12-14T03:06:17;8.50;99.90
17092;DHT22;8661;45.700;4.880;2023-12-14T03:08:44;8.50;99.90
17092;DHT22;8661;45.700;4.880;2023-12-14T03:11:21;8.50;99.90
17092;DHT22;8661;45.700;4.880;2023-12-14T03:13:48;8.50;99.90
17092;DHT22;8661;45.700;4.880;2023-12-14T03:16:16;8.50;99.90
17092;DHT22;8661;45.700;4.880;2023-12-14T03:18:43;8.50;99.90
17092;DHT22;8661;45.700;4.880;2023-12-14T03:21:10;8.40;99.90
17092;DHT22;8661;45.700;4.880;2023-12-14T03:23:37;8.50;99.90
17092;DHT22;8661;45.700;4.880;2023-12-14T03:26:04;8.50;99.90
17092;DHT22;8661;45.700;4.880;2023-12-14T03:28:31;8.50;99.90
17092;DHT22;8661;45.700;4.880;2023-12-14T03:30:58;8.50;99.90
17092;DHT22;8661;45.700;4.880;2023-12-14T03:33:26;8.50;99.90
17092;DHT22;8661;45.700;4.880;2023-12-14T03:35:53;8.50;99.90
17092;DHT22;8661;45.700;4.880;2023-12-14T03:38:20;8.60;99.90
17092;DHT22;8661;45.700;4.880;2023-12-14T03:40:47;8.60;99.90
17092;DHT22;8661;45.700;4.880;2023-12-14T03:43:14;8.60;99.90
17092;DHT22;8661;45.700;4.880;2023-12-14T03:45:41;8.60;99.90
17092;DHT22;8661;45.700;4.880;2023-12-14T03:48:07;8.60;99.90
17092;DHT22;8661;45.700;4.880;2023-12-14T03:50:36;8.50;99.90
17092;DHT22;8661;45.700;4.880;2023-12-14T03:53:03;8.50;99.90
17092;DHT22;8661;45.700;4.880;2023-12-14T03:55:29;8.60;99.90
17092;DHT22;8661;45.700;4.880;2023-12-14T03:57:56;8.60;99.90
17092;DHT22;8661;45.700;4.880;2023-12-14T04:00:23;8.60;99.90
17092;DHT22;8661;45.700;4.880;2023-12-14T04:02:50;8.60;99.90
17092;DHT22;8661;45.700;4.880;2023-12-14T04:05:17;8.60;99.90
17092;DHT22;8661;45.700;4.880;2023-12-14T04:07:45;8.60;99.90
17092;DHT22;8661;45.700;4.880;2023-12-14T04:10:12;8.60;99.90
17092;DHT22;8661;45.700;4.880;2023-12-14T04:12:40;8.60;99.90
17092;DHT22;8661;45.700;4.880;2023-12-14T04:15:08;8.60;99.90
17092;DHT22;8661;45.700;4.880;2023-12-14T04:17:36;8.60;99.90
17092;DHT22;8661;45.700;4.880;2023-12-14T04:20:04;8.60;99.90
17092;DHT22;8661;45.700;4.880;2023-12-14T04:22:31;8.70;99.90
17092;DHT22;8661;45.700;4.880;2023-12-14T04:25:00;8.60;99.90
17092;DHT22;8661;45.700;4.880;2023-12-14T04:27:27;8.60;99.90
17092;DHT22;8661;45.700;4.880;2023-12-14T04:29:55;8.60;99.90
17092;DHT22;8661;45.700;4.880;2023-12-14T04:32:22;8.60;99.90
17092;DHT22;8661;45.700;4.880;2023-12-14T04:34:49;8.50;99.90
17092;DHT22;8661;45.700;4.880;2023-12-14T04:37:16;8.50;99.90
17092;DHT22;8661;45.700;4.880;2023-12-14T04:39:43;8.50;99.90
17092;DHT22;8661;45.700;4.880;2023-12-14T04:42:11;8.40;99.90
17092;DHT22;8661;45.700;4.880;2023-12-14T04:44:38;8.40;99.90
17092;DHT22;8661;45.700;4.880;2023-12-14T04:47:05;8.40;99.90
17092;DHT22;8661;45.700;4.880;2023-12-14T04:49:32;8.30;99.90
17092;DHT22;8661;45.700;4.880;2023-12-14T04:51:59;8.30;99.90
17092;DHT22;8661;45.700;4.880;2023-12-14T04:54:26;8.30;99.90
17092;DHT22;8661;45.700;4.880;2023-12-14T04:56:52;8.30;99.90
17092;DHT22;8661;45.700;4.880;2023-12-14T04:59:21;8.20;99.90
17092;DHT22;8661;45.700;4.880;2023-12-14T05:01:48;8.20;99.90
17092;DHT22;8661;45.700;4.880;2023-12-14T05:04:15;8.20;99.90
17092;DHT22;8661;45.700;4.880;2023-12-14T05:06:41;8.20;99.90
17092;DHT22;8661;45.700;4.880;2023-12-14T05:09:08;8.20;99.90
17092;DHT22;8661;45.700;4.880;2023-12-14T05:11:38;8.20;99.90
17092;DHT22;8661;45.700;4.880;2023-12-14T05:14:05;8.10;99.90
17092;DHT22;8661;45.700;4.880;2023-12-14T05:16:34;8.10;99.90
17092;DHT22;8661;45.700;4.880;2023-12-14T05:19:01;8.10;99.90
17092;DHT22;8661;45.700;4.880;2023-12-14T05:21:28;8.10;99.90
17092;DHT22;8661;45.700;4.880;2023-12-14T05:23:54;8.00;99.90
17092;DHT22;8661;45.700;4.880;2023-12-14T05:26:21;8.00;99.90
17092;DHT22;8661;45.700;4.880;2023-12-14T05:28:48;8.00;99.90
17092;DHT22;8661;45.700;4.880;2023-12-14T05:31:15;8.00;99.90
17092;DHT22;8661;45.700;4.880;2023-12-14T05:33:43;8.00;99.90
17092;DHT22;8661;45.700;4.880;2023-12-14T05:36:10;8.00;99.90
17092;DHT22;8661;45.700;4.880;2023-12-14T05:38:38;8.00;99.90
17092;DHT22;8661;45.700;4.880;2023-12-14T05:41:05;8.00;99.90
17092;DHT22;8661;45.700;4.880;2023-12-14T05:43:32;8.00;99.90
17092;DHT22;8661;45.700;4.880;2023-12-14T05:45:59;8.10;99.90
17092;DHT22;8661;45.700;4.880;2023-12-14T05:48:26;8.00;99.90
17092;DHT22;8661;45.700;4.880;2023-12-14T05:50:55;8.00;99.90
17092;DHT22;8661;45.700;4.880;2023-12-14T05:53:23;8.00;99.90
17092;DHT22;8661;45.700;4.880;2023-12-14T05:55:50;8.00;99.90
17092;DHT22;8661;45.700;4.880;2023-12-14T05:58:16;8.00;99.90
17092;DHT22;8661;45.700;4.880;2023-12-14T06:00:44;8.00;99.90
17092;DHT22;8661;45.700;4.880;2023-12-14T06:03:11;8.10;99.90
17092;DHT22;8661;45.700;4.880;2023-12-14T06:05:37;8.10;99.90
17092;DHT22;8661;45.700;4.880;2023-12-14T06:08:06;8.20;99.90
17092;DHT22;8661;45.700;4.880;2023-12-14T06:10:33;8.20;99.90
17092;DHT22;8661;45.700;4.880;2023-12-14T06:13:00;8.20;99.90
17092;DHT22;8661;45.700;4.880;2023-12-14T06:15:26;8.20;99.90
17092;DHT22;8661;45.700;4.880;2023-12-14T06:17:53;8.20;99.90
17092;DHT22;8661;45.700;4.880;2023-12-14T06:20:20;8.20;99.90
17092;DHT22;8661;45.700;4.880;2023-12-14T06:22:48;8.20;99.90
17092;DHT22;8661;45.700;4.880;2023-12-14T06:25:17;8.20;99.90
17092;DHT22;8661;45.700;4.880;2023-12-14T06:27:43;8.30;99.90
17092;DHT22;8661;45.700;4.880;2023-12-14T06:30:11;8.30;99.90
17092;DHT22;8661;45.700;4.880;2023-12-14T06:32:38;8.20;99.90
17092;DHT22;8661;45.700;4.880;2023-12-14T06:35:06;8.30;99.90
17092;DHT22;8661;45.700;4.880;2023-12-14T06:37:33;8.30;99.90
17092;DHT22;8661;45.700;4.880;2023-12-14T06:40:00;8.30;99.90
17092;DHT22;8661;45.700;4.880;2023-12-14T06:42:28;8.20;99.90
17092;DHT22;8661;45.700;4.880;2023-12-14T06:44:56;8.20;99.90
17092;DHT22;8661;45.700;4.880;2023-12-14T06:47:23;8.20;99.90
17092;DHT22;8661;45.700;4.880;2023-12-14T06:49:50;8.30;99.90
17092;DHT22;8661;45.700;4.880;2023-12-14T06:52:17;8.30;99.90
17092;DHT22;8661;45.700;4.880;2023-12-14T06:54:44;8.30;99.90
17092;DHT22;8661;45.700;4.880;2023-12-14T06:57:11;8.30;99.90
17092;DHT22;8661;45.700;4.880;2023-12-14T06:59:39;8.30;99.90
17092;DHT22;8661;45.700;4.880;2023-12-14T07:02:07;8.30;99.90
17092;DHT22;8661;45.700;4.880;2023-12-14T07:04:34;8.30;99.90
17092;DHT22;8661;45.700;4.880;2023-12-14T07:07:01;8.30;99.90
17092;DHT22;8661;45.700;4.880;2023-12-14T07:09:28;8.20;99.90
17092;DHT22;8661;45.700;4.880;2023-12-14T07:11:55;8.20;99.90
17092;DHT22;8661;45.700;4.880;2023-12-14T07:14:22;8.20;99.90
17092;DHT22;8661;45.700;4.880;2023-12-14T07:16:50;8.20;99.90
17092;DHT22;8661;45.700;4.880;2023-12-14T07:19:17;8.30;99.90
17092;DHT22;8661;45.700;4.880;2023-12-14T07:21:44;8.30;99.90
17092;DHT22;8661;45.700;4.880;2023-12-14T07:24:11;8.30;99.90
17092;DHT22;8661;45.700;4.880;2023-12-14T07:26:38;8.40;99.90
17092;DHT22;8661;45.700;4.880;2023-12-14T07:29:05;8.50;99.90
17092;DHT22;8661;45.700;4.880;2023-12-14T07:31:32;8.50;99.90
17092;DHT22;8661;45.700;4.880;2023-12-14T07:34:00;8.50;99.90
17092;DHT22;8661;45.700;4.880;2023-12-14T07:36:27;8.50;99.90
17092;DHT22;8661;45.700;4.880;2023-12-14T07:38:54;8.50;99.90
17092;DHT22;8661;45.700;4.880;2023-12-14T07:41:26;8.50;99.90
17092;DHT22;8661;45.700;4.880;2023-12-14T07:43:55;8.50;99.90
17092;DHT22;8661;45.700;4.880;2023-12-14T07:46:22;8.50;99.90
17092;DHT22;8661;45.700;4.880;2023-12-14T07:48:49;8.50;99.90
17092;DHT22;8661;45.700;4.880;2023-12-14T07:51:17;8.50;99.90
17092;DHT22;8661;45.700;4.880;2023-12-14T07:53:44;8.50;99.90
17092;DHT22;8661;45.700;4.880;2023-12-14T07:56:12;8.50;99.90
17092;DHT22;8661;45.700;4.880;2023-12-14T07:58:39;8.50;99.90
17092;DHT22;8661;45.700;4.880;2023-12-14T08:01:06;8.40;99.90
17092;DHT22;8661;45.700;4.880;2023-12-14T08:03:33;8.40;99.90
17092;DHT22;8661;45.700;4.880;2023-12-14T08:06:00;8.40;99.90
17092;DHT22;8661;45.700;4.880;2023-12-14T08:08:28;8.40;99.90
17092;DHT22;8661;45.700;4.880;2023-12-14T08:10:55;8.40;99.90
17092;DHT22;8661;45.700;4.880;2023-12-14T08:13:22;8.40;99.90
17092;DHT22;8661;45.700;4.880;2023-12-14T08:15:49;8.40;99.90
17092;DHT22;8661;45.700;4.880;2023-12-14T08:18:17;8.50;99.90
17092;DHT22;8661;45.700;4.880;2023-12-14T08:20:44;8.50;99.90
17092;DHT22;8661;45.700;4.880;2023-12-14T08:23:11;8.40;99.90
17092;DHT22;8661;45.700;4.880;2023-12-14T08:25:39;8.50;99.90
17092;DHT22;8661;45.700;4.880;2023-12-14T08:28:06;8.50;99.90
17092;DHT22;8661;45.700;4.880;2023-12-14T08:30:33;8.50;99.90
17092;DHT22;8661;45.700;4.880;2023-12-14T08:33:01;8.60;99.90
17092;DHT22;8661;45.700;4.880;2023-12-14T08:35:28;8.60;99.90
17092;DHT22;8661;45.700;4.880;2023-12-14T08:37:55;8.70;99.90
17092;DHT22;8661;45.700;4.880;2023-12-14T08:40:22;8.60;99.90
17092;DHT22;8661;45.700;4.880;2023-12-14T08:42:50;8.60;99.90
17092;DHT22;8661;45.700;4.880;2023-12-14T08:45:17;8.60;99.90
17092;DHT22;8661;45.700;4.880;2023-12-14T08:47:44;8.70;99.90
17092;DHT22;8661;45.700;4.880;2023-12-14T08:50:11;8.70;99.90
17092;DHT22;8661;45.700;4.880;2023-12-14T08:52:38;8.70;99.90
17092;DHT22;8661;45.700;4.880;2023-12-14T08:55:05;8.70;99.90
17092;DHT22;8661;45.700;4.880;2023-12-14T08:57:32;8.80;99.90
17092;DHT22;8661;45.700;4.880;2023-12-14T09:00:01;8.80;99.90
17092;DHT22;8661;45.700;4.880;2023-12-14T09:02:29;8.90;99.90
17092;DHT22;8661;45.700;4.880;2023-12-14T09:04:56;8.90;99.90
17092;DHT22;8661;45.700;4.880;2023-12-14T09:07:23;9.00;99.90
17092;DHT22;8661;45.700;4.880;2023-12-14T09:09:50;9.00;99.90
17092;DHT22;8661;45.700;4.880;2023-12-14T09:12:17;9.10;99.90
17092;DHT22;8661;45.700;4.880;2023-12-14T09:14:44;9.20;99.90
17092;DHT22;8661;45.700;4.880;2023-12-14T09:17:13;9.20;99.90
17092;DHT22;8661;45.700;4.880;2023-12-14T09:19:40;9.20;99.90
17092;DHT22;8661;45.700;4.880;2023-12-14T09:22:07;9.20;99.90
17092;DHT22;8661;45.700;4.880;2023-12-14T09:24:34;9.30;99.90
17092;DHT22;8661;45.700;4.880;2023-12-14T09:27:01;9.40;99.90
17092;DHT22;8661;45.700;4.880;2023-12-14T09:29:28;9.40;99.90
17092;DHT22;8661;45.700;4.880;2023-12-14T09:31:54;9.50;99.90
17092;DHT22;8661;45.700;4.880;2023-12-14T09:34:23;9.60;99.90
17092;DHT22;8661;45.700;4.880;2023-12-14T09:36:50;9.70;99.90
17092;DHT22;8661;45.700;4.880;2023-12-14T09:39:17;9.80;99.90
17092;DHT22;8661;45.700;4.880;2023-12-14T09:41:47;9.80;99.90
17092;DHT22;8661;45.700;4.880;2023-12-14T09:44:14;9.70;99.90
17092;DHT22;8661;45.700;4.880;2023-12-14T09:46:41;9.60;99.90
17092;DHT22;8661;45.700;4.880;2023-12-14T09:49:15;9.50;99.90
17092;DHT22;8661;45.700;4.880;2023-12-14T09:51:43;9.50;99.90
17092;DHT22;8661;45.700;4.880;2023-12-14T09:54:10;9.40;99.90
17092;DHT22;8661;45.700;4.880;2023-12-14T09:56:46;9.40;99.90
17092;DHT22;8661;45.700;4.880;2023-12-14T09:59:13;9.40;99.90
17092;DHT22;8661;45.700;4.880;2023-12-14T10:01:41;9.40;99.90
17092;DHT22;8661;45.700;4.880;2023-12-14T10:04:10;9.40;99.90
17092;DHT22;8661;45.700;4.880;2023-12-14T10:06:38;9.40;99.90
17092;DHT22;8661;45.700;4.880;2023-12-14T10:09:07;9.40;99.90
17092;DHT22;8661;45.700;4.880;2023-12-14T10:11:35;9.50;99.90
17092;DHT22;8661;45.700;4.880;2023-12-14T10:14:02;9.50;99.90
17092;DHT22;8661;45.700;4.880;2023-12-14T10:16:30;9.50;99.90
17092;DHT22;8661;45.700;4.880;2023-12-14T10:18:58;9.50;99.90
17092;DHT22;8661;45.700;4.880;2023-12-14T10:21:27;9.50;99.90
17092;DHT22;8661;45.700;4.880;2023-12-14T10:23:55;9.60;99.90
17092;DHT22;8661;45.700;4.880;2023-12-14T10:26:24;9.60;99.90
17092;DHT22;8661;45.700;4.880;2023-12-14T10:28:51;9.70;99.90
17092;DHT22;8661;45.700;4.880;2023-12-14T10:31:19;9.70;99.90
17092;DHT22;8661;45.700;4.880;2023-12-14T10:33:47;9.70;99.90
17092;DHT22;8661;45.700;4.880;2023-12-14T10:36:15;9.70;99.90
17092;DHT22;8661;45.700;4.880;2023-12-14T10:38:46;9.70;99.90
17092;DHT22;8661;45.700;4.880;2023-12-14T10:41:14;9.80;99.90
17092;DHT22;8661;45.700;4.880;2023-12-14T10:43:47;9.90;99.90
17092;DHT22;8661;45.700;4.880;2023-12-14T10:46:14;10.00;99.90
17092;DHT22;8661;45.700;4.880;2023-12-14T10:48:43;9.90;99.90
17092;DHT22;8661;45.700;4.880;2023-12-14T10:51:11;9.90;99.90
17092;DHT22;8661;45.700;4.880;2023-12-14T10:53:39;9.80;99.90
17092;DHT22;8661;45.700;4.880;2023-12-14T10:56:10;9.80;99.90
17092;DHT22;8661;45.700;4.880;2023-12-14T10:58:51;9.80;99.90
17092;DHT22;8661;45.700;4.880;2023-12-14T11:01:20;9.80;99.90
17092;DHT22;8661;45.700;4.880;2023-12-14T11:03:48;9.90;99.90
17092;DHT22;8661;45.700;4.880;2023-12-14T11:06:29;10.00;99.90
17092;DHT22;8661;45.700;4.880;2023-12-14T11:09:01;10.00;99.90
17092;DHT22;8661;45.700;4.880;2023-12-14T11:11:39;10.00;99.90
17092;DHT22;8661;45.700;4.880;2023-12-14T11:14:10;10.10;99.90
17092;DHT22;8661;45.700;4.880;2023-12-14T11:16:38;10.10;99.90
17092;DHT22;8661;45.700;4.880;2023-12-14T11:19:27;10.00;99.90
17092;DHT22;8661;45.700;4.880;2023-12-14T11:22:23;10.00;99.90
17092;DHT22;8661;45.700;4.880;2023-12-14T11:24:54;10.00;99.90
17092;DHT22;8661;45.700;4.880;2023-12-14T11:27:30;10.00;99.90
17092;DHT22;8661;45.700;4.880;2023-12-14T11:29:59;10.00;99.90
17092;DHT22;8661;45.700;4.880;2023-12-14T11:32:27;10.10;99.90
17092;DHT22;8661;45.700;4.880;2023-12-14T11:34:55;10.00;99.90
17092;DHT22;8661;45.700;4.880;2023-12-14T11:37:22;10.10;99.90
17092;DHT22;8661;45.700;4.880;2023-12-14T11:39:50;10.10;99.90
17092;DHT22;8661;45.700;4.880;2023-12-14T11:42:19;10.30;99.90
17092;DHT22;8661;45.700;4.880;2023-12-14T11:44:46;10.40;99.90
17092;DHT22;8661;45.700;4.880;2023-12-14T11:47:15;10.40;99.90
17092;DHT22;8661;45.700;4.880;2023-12-14T11:49:42;10.40;99.90
17092;DHT22;8661;45.700;4.880;2023-12-14T11:52:10;10.50;99.90
17092;DHT22;8661;45.700;4.880;2023-12-14T11:54:37;10.50;99.90
17092;DHT22;8661;45.700;4.880;2023-12-14T11:57:04;10.50;99.90
17092;DHT22;8661;45.700;4.880;2023-12-14T11:59:35;10.60;99.90
17092;DHT22;8661;45.700;4.880;2023-12-14T12:02:03;10.60;99.90
17092;DHT22;8661;45.700;4.880;2023-12-14T12:04:32;10.60;99.90
17092;DHT22;8661;45.700;4.880;2023-12-14T12:07:00;10.60;99.90
17092;DHT22;8661;45.700;4.880;2023-12-14T12:09:35;10.70;99.90
17092;DHT22;8661;45.700;4.880;2023-12-14T12:12:05;10.90;99.90
17092;DHT22;8661;45.700;4.880;2023-12-14T12:14:33;10.90;99.90
17092;DHT22;8661;45.700;4.880;2023-12-14T12:17:01;11.00;99.90
17092;DHT22;8661;45.700;4.880;2023-12-14T12:19:28;10.80;99.90
17092;DHT22;8661;45.700;4.880;2023-12-14T12:21:57;10.80;99.90
17092;DHT22;8661;45.700;4.880;2023-12-14T12:24:24;10.90;99.90
17092;DHT22;8661;45.700;4.880;2023-12-14T12:26:50;11.00;99.90
17092;DHT22;8661;45.700;4.880;2023-12-14T12:29:17;11.00;99.90
17092;DHT22;8661;45.700;4.880;2023-12-14T12:31:44;11.00;99.90
17092;DHT22;8661;45.700;4.880;2023-12-14T12:34:11;11.00;99.90
17092;DHT22;8661;45.700;4.880;2023-12-14T12:36:38;10.90;99.90
17092;DHT22;8661;45.700;4.880;2023-12-14T12:39:07;10.90;99.90
17092;DHT22;8661;45.700;4.880;2023-12-14T12:41:34;10.90;99.90
17092;DHT22;8661;45.700;4.880;2023-12-14T12:44:03;10.80;99.90
17092;DHT22;8661;45.700;4.880;2023-12-14T12:46:32;10.80;99.90
17092;DHT22;8661;45.700;4.880;2023-12-14T12:49:00;10.80;99.90
17092;DHT22;8661;45.700;4.880;2023-12-14T12:51:27;10.80;99.90
17092;DHT22;8661;45.700;4.880;2023-12-14T12:53:55;11.00;99.90
17092;DHT22;8661;45.700;4.880;2023-12-14T12:56:24;11.20;99.90
17092;DHT22;8661;45.700;4.880;2023-12-14T12:58:51;11.60;99.90
17092;DHT22;8661;45.700;4.880;2023-12-14T13:01:19;12.40;99.90
17092;DHT22;8661;45.700;4.880;2023-12-14T13:03:51;13.10;99.90
17092;DHT22;8661;45.700;4.880;2023-12-14T13:06:18;14.40;99.90
17092;DHT22;8661;45.700;4.880;2023-12-14T13:08:45;15.00;99.90
17092;DHT22;8661;45.700;4.880;2023-12-14T13:11:12;14.80;99.90
17092;DHT22;8661;45.700;4.880;2023-12-14T13:13:41;14.20;99.90
17092;DHT22;8661;45.700;4.880;2023-12-14T13:16:09;13.60;99.90
17092;DHT22;8661;45.700;4.880;2023-12-14T13:18:36;13.10;99.90
17092;DHT22;8661;45.700;4.880;2023-12-14T13:21:03;12.70;99.90
17092;DHT22;8661;45.700;4.880;2023-12-14T13:23:30;12.50;99.90
17092;DHT22;8661;45.700;4.880;2023-12-14T13:25:58;12.10;99.90
17092;DHT22;8661;45.700;4.880;2023-12-14T13:28:25;11.90;99.90
17092;DHT22;8661;45.700;4.880;2023-12-14T13:30:53;11.60;99.90
17092;DHT22;8661;45.700;4.880;2023-12-14T13:33:21;11.40;99.90
17092;DHT22;8661;45.700;4.880;2023-12-14T13:35:47;11.40;99.90
17092;DHT22;8661;45.700;4.880;2023-12-14T13:38:14;11.30;99.90
17092;DHT22;8661;45.700;4.880;2023-12-14T13:40:42;11.30;99.90
17092;DHT22;8661;45.700;4.880;2023-12-14T13:43:09;11.20;99.90
17092;DHT22;8661;45.700;4.880;2023-12-14T13:45:37;11.30;99.90
17092;DHT22;8661;45.700;4.880;2023-12-14T13:48:05;11.30;99.90
17092;DHT22;8661;45.700;4.880;2023-12-14T13:50:33;11.40;99.90
17092;DHT22;8661;45.700;4.880;2023-12-14T13:53:00;11.30;99.90
17092;DHT22;8661;45.700;4.880;2023-12-14T13:55:27;11.30;99.90
17092;DHT22;8661;45.700;4.880;2023-12-14T13:57:54;11.10;99.90
17092;DHT22;8661;45.700;4.880;2023-12-14T14:00:23;11.00;99.90
17092;DHT22;8661;45.700;4.880;2023-12-14T14:02:50;11.00;99.90
17092;DHT22;8661;45.700;4.880;2023-12-14T14:05:19;10.90;99.90
17092;DHT22;8661;45.700;4.880;2023-12-14T14:07:46;10.80;99.90
17092;DHT22;8661;45.700;4.880;2023-12-14T14:10:14;10.80;99.90
17092;DHT22;8661;45.700;4.880;2023-12-14T14:12:40;10.70;99.90
17092;DHT22;8661;45.700;4.880;2023-12-14T14:15:08;10.60;99.90
17092;DHT22;8661;45.700;4.880;2023-12-14T14:17:35;10.60;99.90
17092;DHT22;8661;45.700;4.880;2023-12-14T14:20:01;10.60;99.90
17092;DHT22;8661;45.700;4.880;2023-12-14T14:22:30;10.50;99.90
17092;DHT22;8661;45.700;4.880;2023-12-14T14:24:56;10.40;99.90
17092;DHT22;8661;45.700;4.880;2023-12-14T14:27:23;10.40;99.90
17092;DHT22;8661;45.700;4.880;2023-12-14T14:29:50;10.30;99.90
17092;DHT22;8661;45.700;4.880;2023-12-14T14:32:19;10.30;99.90
17092;DHT22;8661;45.700;4.880;2023-12-14T14:34:46;10.20;99.90
17092;DHT22;8661;45.700;4.880;2023-12-14T14:37:13;10.20;99.90
17092;DHT22;8661;45.700;4.880;2023-12-14T14:39:42;10.10;99.90
17092;DHT22;8661;45.700;4.880;2023-12-14T14:42:09;10.00;99.90
17092;DHT22;8661;45.700;4.880;2023-12-14T14:44:36;9.90;99.90
17092;DHT22;8661;45.700;4.880;2023-12-14T14:47:04;9.90;99.90
17092;DHT22;8661;45.700;4.880;2023-12-14T14:49:31;9.80;99.90
17092;DHT22;8661;45.700;4.880;2023-12-14T14:51:57;9.70;99.90
17092;DHT22;8661;45.700;4.880;2023-12-14T14:54:24;9.70;99.90
17092;DHT22;8661;45.700;4.880;2023-12-14T14:56:53;9.60;99.90
17092;DHT22;8661;45.700;4.880;2023-12-14T14:59:20;9.60;99.90
17092;DHT22;8661;45.700;4.880;2023-12-14T15:01:48;9.60;99.90
17092;DHT22;8661;45.700;4.880;2023-12-14T15:04:16;9.50;99.90
17092;DHT22;8661;45.700;4.880;2023-12-14T15:06:43;9.50;99.90
17092;DHT22;8661;45.700;4.880;2023-12-14T15:09:10;9.50;99.90
17092;DHT22;8661;45.700;4.880;2023-12-14T15:11:38;9.50;99.90
17092;DHT22;8661;45.700;4.880;2023-12-14T15:14:06;9.40;99.90
17092;DHT22;8661;45.700;4.880;2023-12-14T15:16:33;9.40;99.90
17092;DHT22;8661;45.700;4.880;2023-12-14T15:19:01;9.40;99.90
17092;DHT22;8661;45.700;4.880;2023-12-14T15:21:28;9.30;99.90
17092;DHT22;8661;45.700;4.880;2023-12-14T15:23:55;9.30;99.90
17092;DHT22;8661;45.700;4.880;2023-12-14T15:26:22;9.30;99.90
17092;DHT22;8661;45.700;4.880;2023-12-14T15:28:49;9.30;99.90
17092;DHT22;8661;45.700;4.880;2023-12-14T15:31:18;9.20;99.90
17092;DHT22;8661;45.700;4.880;2023-12-14T15:33:45;9.20;99.90
17092;DHT22;8661;45.700;4.880;2023-12-14T15:36:12;9.30;99.90
17092;DHT22;8661;45.700;4.880;2023-12-14T15:38:39;9.30;99.90
17092;DHT22;8661;45.700;4.880;2023-12-14T15:41:10;9.30;99.90
17092;DHT22;8661;45.700;4.880;2023-12-14T15:43:38;9.30;99.90
17092;DHT22;8661;45.700;4.880;2023-12-14T15:46:05;9.30;99.90
17092;DHT22;8661;45.700;4.880;2023-12-14T15:48:34;9.20;99.90
17092;DHT22;8661;45.700;4.880;2023-12-14T15:51:02;9.20;99.90
17092;DHT22;8661;45.700;4.880;2023-12-14T15:53:30;9.20;99.90
17092;DHT22;8661;45.700;4.880;2023-12-14T15:55:57;9.20;99.90
17092;DHT22;8661;45.700;4.880;2023-12-14T15:58:24;9.20;99.90
17092;DHT22;8661;45.700;4.880;2023-12-14T16:00:54;9.20;99.90